sensor_id;sensor_type;location;lat;lon;timestamp;temperature;humidity
18229;DHT22;9239;50.932;3.142;2023-09-19T00:00:17;15.30;99.90
18229;DHT22;9239;50.932;3.142;2023-09-19T00:02:46;15.30;99.90
18229;DHT22;9239;50.932;3.142;2023-09-19T00:05:13;15.30;99.90
18229;DHT22;9239;50.932;3.142;2023-09-19T00:07:40;15.30;99.90
18229;DHT22;9239;50.932;3.142;2023-09-19T00:10:08;15.30;99.90
18229;DHT22;9239;50.932;3.142;2023-09-19T00:12:36;15.30;99.90
18229;DHT22;9239;50.932;3.142;2023-09-19T00:15:06;15.30;99.90
18229;DHT22;9239;50.932;3.142;2023-09-19T00:17:33;15.30;99.90
18229;DHT22;9239;50.932;3.142;2023-09-19T00:20:00;15.30;99.90
18229;DHT22;9239;50.932;3.142;2023-09-19T00:22:33;15.10;99.90
18229;DHT22;9239;50.932;3.142;2023-09-19T00:24:59;15.10;99.90
18229;DHT22;9239;50.932;3.142;2023-09-19T00:27:28;15.10;99.90
18229;DHT22;9239;50.932;3.142;2023-09-19T00:29:55;15.10;99.90
18229;DHT22;9239;50.932;3.142;2023-09-19T00:32:23;15.10;99.90
18229;DHT22;9239;50.932;3.142;2023-09-19T00:34:50;15.10;99.90
18229;DHT22;9239;50.932;3.142;2023-09-19T00:37:17;15.10;99.90
18229;DHT22;9239;50.932;3.142;2023-09-19T00:39:44;15.10;99.90
18229;DHT22;9239;50.932;3.142;2023-09-19T00:42:18;15.10;99.90
18229;DHT22;9239;50.932;3.142;2023-09-19T00:44:47;15.10;99.90
18229;DHT22;9239;50.932;3.142;2023-09-19T00:47:16;15.20;99.90
18229;DHT22;9239;50.932;3.142;2023-09-19T00:49:45;15.20;99.90
18229;DHT22;9239;50.932;3.142;2023-09-19T00:52:16;15.20;99.90
18229;DHT22;9239;50.932;3.142;2023-09-19T00:54:46;15.20;99.90
18229;DHT22;9239;50.932;3.142;2023-09-19T00:57:13;15.20;99.90
18229;DHT22;9239;50.932;3.142;2023-09-19T00:59:43;15.10;99.90
18229;DHT22;9239;50.932;3.142;2023-09-19T01:02:10;15.10;99.90
18229;DHT22;9239;50.932;3.142;2023-09-19T01:04:40;15.10;99.90
18229;DHT22;9239;50.932;3.142;2023-09-19T01:07:09;15.10;99.90
18229;DHT22;9239;50.932;3.142;2023-09-19T01:09:36;15.10;99.90
18229;DHT22;9239;50.932;3.142;2023-09-19T01:12:06;15.10;99.90
18229;DHT22;9239;50.932;3.142;2023-09-19T01:14:40;15.20;99.90
18229;DHT22;9239;50.932;3.142;2023-09-19T01:17:14;15.20;99.90
18229;DHT22;9239;50.932;3.142;2023-09-19T01:20:20;15.20;99.90
18229;DHT22;9239;50.932;3.142;2023-09-19T01:23:00;15.30;99.90
18229;DHT22;9239;50.932;3.142;2023-09-19T01:28:43;15.30;99.90
18229;DHT22;9239;50.932;3.142;2023-09-19T01:31:14;15.30;99.90
18229;DHT22;9239;50.932;3.142;2023-09-19T01:33:55;15.30;99.90
18229;DHT22;9239;50.932;3.142;2023-09-19T01:36:25;15.30;99.90
18229;DHT22;9239;50.932;3.142;2023-09-19T01:38:53;15.30;99.90
18229;DHT22;9239;50.932;3.142;2023-09-19T01:41:26;15.30;99.90
18229;DHT22;9239;50.932;3.142;2023-09-19T01:43:56;15.20;99.90
18229;DHT22;9239;50.932;3.142;2023-09-19T01:46:32;15.30;99.90
18229;DHT22;9239;50.932;3.142;2023-09-19T01:49:11;15.30;99.90
18229;DHT22;9239;50.932;3.142;2023-09-19T01:51:48;15.20;99.90
18229;DHT22;9239;50.932;3.142;2023-09-19T01:54:24;15.20;99.90
18229;DHT22;9239;50.932;3.142;2023-09-19T01:56:59;15.30;99.90
18229;DHT22;9239;50.932;3.142;2023-09-19T01:59:35;15.30;99.90
18229;DHT22;9239;50.932;3.142;2023-09-19T02:02:08;15.30;99.90
18229;DHT22;9239;50.932;3.142;2023-09-19T02:04:36;15.30;99.90
18229;DHT22;9239;50.932;3.142;2023-09-19T02:07:03;15.40;99.90
18229;DHT22;9239;50.932;3.142;2023-09-19T02:09:31;15.30;99.90
18229;DHT22;9239;50.932;3.142;2023-09-19T02:11:59;15.30;99.90
18229;DHT22;9239;50.932;3.142;2023-09-19T02:14:26;15.40;99.90
18229;DHT22;9239;50.932;3.142;2023-09-19T02:16:55;15.50;99.90
18229;DHT22;9239;50.932;3.142;2023-09-19T02:19:23;15.40;99.90
18229;DHT22;9239;50.932;3.142;2023-09-19T02:21:50;15.40;99.90
18229;DHT22;9239;50.932;3.142;2023-09-19T02:24:18;15.30;99.90
18229;DHT22;9239;50.932;3.142;2023-09-19T02:26:45;15.40;99.90
18229;DHT22;9239;50.932;3.142;2023-09-19T02:29:12;15.40;99.90
18229;DHT22;9239;50.932;3.142;2023-09-19T02:31:39;15.40;99.90
18229;DHT22;9239;50.932;3.142;2023-09-19T02:34:08;15.40;99.90
18229;DHT22;9239;50.932;3.142;2023-09-19T02:36:37;15.40;99.90
18229;DHT22;9239;50.932;3.142;2023-09-19T02:39:04;15.40;99.90
18229;DHT22;9239;50.932;3.142;2023-09-19T02:41:33;15.30;99.90
18229;DHT22;9239;50.932;3.142;2023-09-19T02:44:00;15.30;99.90
18229;DHT22;9239;50.932;3.142;2023-09-19T02:46:28;15.30;99.90
18229;DHT22;9239;50.932;3.142;2023-09-19T02:48:55;15.20;99.90
18229;DHT22;9239;50.932;3.142;2023-09-19T02:51:22;15.20;99.90
18229;DHT22;9239;50.932;3.142;2023-09-19T02:53:51;15.20;99.90
18229;DHT22;9239;50.932;3.142;2023-09-19T02:56:20;15.20;99.90
18229;DHT22;9239;50.932;3.142;2023-09-19T02:58:48;15.20;99.90
18229;DHT22;9239;50.932;3.142;2023-09-19T03:01:15;15.20;99.90
18229;DHT22;9239;50.932;3.142;2023-09-19T03:03:42;15.20;99.90
18229;DHT22;9239;50.932;3.142;2023-09-19T03:06:09;15.20;99.90
18229;DHT22;9239;50.932;3.142;2023-09-19T03:08:36;15.10;99.90
18229;DHT22;9239;50.932;3.142;2023-09-19T03:11:06;15.10;99.90
18229;DHT22;9239;50.932;3.142;2023-09-19T03:13:37;15.10;99.90
18229;DHT22;9239;50.932;3.142;2023-09-19T03:16:05;15.10;99.90
18229;DHT22;9239;50.932;3.142;2023-09-19T03:18:33;15.00;99.90
18229;DHT22;9239;50.932;3.142;2023-09-19T03:21:00;15.00;99.90
18229;DHT22;9239;50.932;3.142;2023-09-19T03:23:28;15.00;99.90
18229;DHT22;9239;50.932;3.142;2023-09-19T03:25:55;15.00;99.90
18229;DHT22;9239;50.932;3.142;2023-09-19T03:28:25;15.00;99.90
18229;DHT22;9239;50.932;3.142;2023-09-19T03:31:00;15.00;99.90
18229;DHT22;9239;50.932;3.142;2023-09-19T03:33:27;14.90;99.90
18229;DHT22;9239;50.932;3.142;2023-09-19T03:35:57;14.90;99.90
18229;DHT22;9239;50.932;3.142;2023-09-19T03:38:24;14.90;99.90
18229;DHT22;9239;50.932;3.142;2023-09-19T03:40:51;14.80;99.90
18229;DHT22;9239;50.932;3.142;2023-09-19T03:43:18;14.80;99.90
18229;DHT22;9239;50.932;3.142;2023-09-19T03:45:47;14.80;99.90
18229;DHT22;9239;50.932;3.142;2023-09-19T03:48:14;14.80;99.90
18229;DHT22;9239;50.932;3.142;2023-09-19T03:50:41;14.70;99.90
18229;DHT22;9239;50.932;3.142;2023-09-19T03:53:09;14.80;99.90
18229;DHT22;9239;50.932;3.142;2023-09-19T03:55:36;14.70;99.90
18229;DHT22;9239;50.932;3.142;2023-09-19T03:58:04;14.60;99.90
18229;DHT22;9239;50.932;3.142;2023-09-19T04:00:32;14.70;99.90
18229;DHT22;9239;50.932;3.142;2023-09-19T04:03:01;14.60;99.90
18229;DHT22;9239;50.932;3.142;2023-09-19T04:05:31;14.50;99.90
18229;DHT22;9239;50.932;3.142;2023-09-19T04:07:59;14.50;99.90
18229;DHT22;9239;50.932;3.142;2023-09-19T04:10:26;14.50;99.90
18229;DHT22;9239;50.932;3.142;2023-09-19T04:12:54;14.50;99.90
18229;DHT22;9239;50.932;3.142;2023-09-19T04:15:21;14.50;99.90
18229;DHT22;9239;50.932;3.142;2023-09-19T04:17:49;14.50;99.90
18229;DHT22;9239;50.932;3.142;2023-09-19T04:20:17;14.50;99.90
18229;DHT22;9239;50.932;3.142;2023-09-19T04:22:45;14.50;99.90
18229;DHT22;9239;50.932;3.142;2023-09-19T04:25:13;14.40;99.90
18229;DHT22;9239;50.932;3.142;2023-09-19T04:27:40;14.50;99.90
18229;DHT22;9239;50.932;3.142;2023-09-19T04:30:08;14.50;99.90
18229;DHT22;9239;50.932;3.142;2023-09-19T04:32:37;14.50;99.90
18229;DHT22;9239;50.932;3.142;2023-09-19T04:35:06;14.50;99.90
18229;DHT22;9239;50.932;3.142;2023-09-19T04:37:37;14.50;99.90
18229;DHT22;9239;50.932;3.142;2023-09-19T04:40:07;14.50;99.90
18229;DHT22;9239;50.932;3.142;2023-09-19T04:42:39;14.50;99.90
18229;DHT22;9239;50.932;3.142;2023-09-19T04:45:07;14.50;99.90
18229;DHT22;9239;50.932;3.142;2023-09-19T04:47:35;14.50;99.90
18229;DHT22;9239;50.932;3.142;2023-09-19T04:50:07;14.50;99.90
18229;DHT22;9239;50.932;3.142;2023-09-19T04:52:40;14.50;99.90
18229;DHT22;9239;50.932;3.142;2023-09-19T04:55:10;14.40;99.90
18229;DHT22;9239;50.932;3.142;2023-09-19T04:57:43;14.40;99.90
18229;DHT22;9239;50.932;3.142;2023-09-19T05:00:12;14.40;99.90
18229;DHT22;9239;50.932;3.142;2023-09-19T05:02:40;14.40;99.90
18229;DHT22;9239;50.932;3.142;2023-09-19T05:05:08;14.30;99.90
18229;DHT22;9239;50.932;3.142;2023-09-19T05:07:36;14.40;99.90
18229;DHT22;9239;50.932;3.142;2023-09-19T05:10:05;14.40;99.90
18229;DHT22;9239;50.932;3.142;2023-09-19T05:12:33;14.40;99.90
18229;DHT22;9239;50.932;3.142;2023-09-19T05:15:01;14.30;99.90
18229;DHT22;9239;50.932;3.142;2023-09-19T05:17:29;14.30;99.90
18229;DHT22;9239;50.932;3.142;2023-09-19T05:19:56;14.30;99.90
18229;DHT22;9239;50.932;3.142;2023-09-19T05:22:23;14.30;99.90
18229;DHT22;9239;50.932;3.142;2023-09-19T05:24:51;14.40;99.90
18229;DHT22;9239;50.932;3.142;2023-09-19T05:27:19;14.40;99.90
18229;DHT22;9239;50.932;3.142;2023-09-19T05:29:47;14.40;99.90
18229;DHT22;9239;50.932;3.142;2023-09-19T05:32:16;14.50;99.90
18229;DHT22;9239;50.932;3.142;2023-09-19T05:34:44;14.60;99.90
18229;DHT22;9239;50.932;3.142;2023-09-19T05:37:11;14.70;99.90
18229;DHT22;9239;50.932;3.142;2023-09-19T05:39:39;14.80;99.90
18229;DHT22;9239;50.932;3.142;2023-09-19T05:42:06;14.80;99.90
18229;DHT22;9239;50.932;3.142;2023-09-19T05:44:35;14.80;99.90
18229;DHT22;9239;50.932;3.142;2023-09-19T05:47:02;14.80;99.90
18229;DHT22;9239;50.932;3.142;2023-09-19T05:49:29;14.70;99.90
18229;DHT22;9239;50.932;3.142;2023-09-19T05:51:56;14.80;99.90
18229;DHT22;9239;50.932;3.142;2023-09-19T05:54:24;14.90;99.90
18229;DHT22;9239;50.932;3.142;2023-09-19T05:56:51;14.90;99.90
18229;DHT22;9239;50.932;3.142;2023-09-19T05:59:19;14.90;99.90
18229;DHT22;9239;50.932;3.142;2023-09-19T06:01:47;14.80;99.90
18229;DHT22;9239;50.932;3.142;2023-09-19T06:04:14;14.80;99.90
18229;DHT22;9239;50.932;3.142;2023-09-19T06:06:41;14.90;99.90
18229;DHT22;9239;50.932;3.142;2023-09-19T06:09:08;14.90;99.90
18229;DHT22;9239;50.932;3.142;2023-09-19T06:11:35;14.90;99.90
18229;DHT22;9239;50.932;3.142;2023-09-19T06:14:02;14.90;99.90
18229;DHT22;9239;50.932;3.142;2023-09-19T06:16:29;14.90;99.90
18229;DHT22;9239;50.932;3.142;2023-09-19T06:18:59;14.80;99.90
18229;DHT22;9239;50.932;3.142;2023-09-19T06:21:27;14.90;99.90
18229;DHT22;9239;50.932;3.142;2023-09-19T06:23:54;14.80;99.90
18229;DHT22;9239;50.932;3.142;2023-09-19T06:26:21;14.90;99.90
18229;DHT22;9239;50.932;3.142;2023-09-19T06:28:49;14.90;99.90
18229;DHT22;9239;50.932;3.142;2023-09-19T06:31:16;15.00;99.90
18229;DHT22;9239;50.932;3.142;2023-09-19T06:33:43;15.00;99.90
18229;DHT22;9239;50.932;3.142;2023-09-19T06:36:12;15.10;99.90
18229;DHT22;9239;50.932;3.142;2023-09-19T06:38:39;15.10;99.90
18229;DHT22;9239;50.932;3.142;2023-09-19T06:41:06;15.10;99.90
18229;DHT22;9239;50.932;3.142;2023-09-19T06:43:34;15.10;99.90
18229;DHT22;9239;50.932;3.142;2023-09-19T06:46:01;15.10;99.90
18229;DHT22;9239;50.932;3.142;2023-09-19T06:48:29;15.10;99.90
18229;DHT22;9239;50.932;3.142;2023-09-19T06:50:57;15.20;99.90
18229;DHT22;9239;50.932;3.142;2023-09-19T06:53:29;15.30;99.90
18229;DHT22;9239;50.932;3.142;2023-09-19T06:55:57;15.30;99.90
18229;DHT22;9239;50.932;3.142;2023-09-19T06:58:25;15.40;99.90
18229;DHT22;9239;50.932;3.142;2023-09-19T07:00:52;15.40;99.90
18229;DHT22;9239;50.932;3.142;2023-09-19T07:03:19;15.50;99.90
18229;DHT22;9239;50.932;3.142;2023-09-19T07:05:49;15.60;99.90
18229;DHT22;9239;50.932;3.142;2023-09-19T07:08:15;15.60;99.90
18229;DHT22;9239;50.932;3.142;2023-09-19T07:10:46;15.60;99.90
18229;DHT22;9239;50.932;3.142;2023-09-19T07:13:15;15.70;99.90
18229;DHT22;9239;50.932;3.142;2023-09-19T07:15:43;15.70;99.90
18229;DHT22;9239;50.932;3.142;2023-09-19T07:18:13;15.70;99.90
18229;DHT22;9239;50.932;3.142;2023-09-19T07:20:42;15.80;99.90
18229;DHT22;9239;50.932;3.142;2023-09-19T07:23:15;15.80;99.90
18229;DHT22;9239;50.932;3.142;2023-09-19T07:25:42;15.90;99.90
18229;DHT22;9239;50.932;3.142;2023-09-19T07:28:10;15.80;99.90
18229;DHT22;9239;50.932;3.142;2023-09-19T07:30:37;15.90;99.90
18229;DHT22;9239;50.932;3.142;2023-09-19T07:33:05;15.90;99.90
18229;DHT22;9239;50.932;3.142;2023-09-19T07:35:32;16.00;99.90
18229;DHT22;9239;50.932;3.142;2023-09-19T07:38:00;16.10;99.90
18229;DHT22;9239;50.932;3.142;2023-09-19T07:40:28;16.10;99.90
18229;DHT22;9239;50.932;3.142;2023-09-19T07:42:55;16.10;99.90
18229;DHT22;9239;50.932;3.142;2023-09-19T07:45:24;16.20;99.90
18229;DHT22;9239;50.932;3.142;2023-09-19T07:47:51;16.10;99.90
18229;DHT22;9239;50.932;3.142;2023-09-19T07:50:19;16.10;99.90
18229;DHT22;9239;50.932;3.142;2023-09-19T07:52:46;16.10;99.90
18229;DHT22;9239;50.932;3.142;2023-09-19T07:55:13;16.10;99.90
18229;DHT22;9239;50.932;3.142;2023-09-19T07:57:42;16.10;99.90
18229;DHT22;9239;50.932;3.142;2023-09-19T08:00:10;16.20;99.90
18229;DHT22;9239;50.932;3.142;2023-09-19T08:02:39;16.30;99.90
18229;DHT22;9239;50.932;3.142;2023-09-19T08:05:08;16.30;99.90
18229;DHT22;9239;50.932;3.142;2023-09-19T08:07:36;16.40;99.90
18229;DHT22;9239;50.932;3.142;2023-09-19T08:10:04;16.50;99.90
18229;DHT22;9239;50.932;3.142;2023-09-19T08:12:33;16.50;99.90
18229;DHT22;9239;50.932;3.142;2023-09-19T08:15:01;16.60;99.90
18229;DHT22;9239;50.932;3.142;2023-09-19T08:17:28;16.60;99.90
18229;DHT22;9239;50.932;3.142;2023-09-19T08:19:56;16.60;99.90
18229;DHT22;9239;50.932;3.142;2023-09-19T08:22:23;16.70;99.90
18229;DHT22;9239;50.932;3.142;2023-09-19T08:24:50;16.80;99.90
18229;DHT22;9239;50.932;3.142;2023-09-19T08:27:17;16.90;99.90
18229;DHT22;9239;50.932;3.142;2023-09-19T08:29:46;17.00;99.90
18229;DHT22;9239;50.932;3.142;2023-09-19T08:32:15;17.00;99.90
18229;DHT22;9239;50.932;3.142;2023-09-19T08:34:44;17.00;99.90
18229;DHT22;9239;50.932;3.142;2023-09-19T08:37:12;17.00;99.90
18229;DHT22;9239;50.932;3.142;2023-09-19T08:39:39;17.00;99.90
18229;DHT22;9239;50.932;3.142;2023-09-19T08:42:06;17.10;99.90
18229;DHT22;9239;50.932;3.142;2023-09-19T08:44:36;17.10;99.90
18229;DHT22;9239;50.932;3.142;2023-09-19T08:47:09;17.20;99.90
18229;DHT22;9239;50.932;3.142;2023-09-19T08:49:43;17.20;99.90
18229;DHT22;9239;50.932;3.142;2023-09-19T08:52:25;17.30;99.90
18229;DHT22;9239;50.932;3.142;2023-09-19T08:54:59;17.30;99.90
18229;DHT22;9239;50.932;3.142;2023-09-19T08:57:29;17.30;99.90
18229;DHT22;9239;50.932;3.142;2023-09-19T08:59:57;17.30;99.90
18229;DHT22;9239;50.932;3.142;2023-09-19T09:02:26;17.30;99.90
18229;DHT22;9239;50.932;3.142;2023-09-19T09:04:55;17.30;99.90
18229;DHT22;9239;50.932;3.142;2023-09-19T09:07:24;17.40;99.90
18229;DHT22;9239;50.932;3.142;2023-09-19T09:09:53;17.40;99.90
18229;DHT22;9239;50.932;3.142;2023-09-19T09:12:20;17.50;99.90
18229;DHT22;9239;50.932;3.142;2023-09-19T09:14:47;17.40;99.90
18229;DHT22;9239;50.932;3.142;2023-09-19T09:17:15;17.40;99.90
18229;DHT22;9239;50.932;3.142;2023-09-19T09:19:46;17.50;99.90
18229;DHT22;9239;50.932;3.142;2023-09-19T09:22:13;17.60;99.90
18229;DHT22;9239;50.932;3.142;2023-09-19T09:24:52;17.70;99.90
18229;DHT22;9239;50.932;3.142;2023-09-19T09:27:20;17.70;99.90
18229;DHT22;9239;50.932;3.142;2023-09-19T09:29:50;17.80;99.90
18229;DHT22;9239;50.932;3.142;2023-09-19T09:32:22;18.00;99.90
18229;DHT22;9239;50.932;3.142;2023-09-19T09:34:52;18.10;99.90
18229;DHT22;9239;50.932;3.142;2023-09-19T09:37:21;18.20;99.90
18229;DHT22;9239;50.932;3.142;2023-09-19T09:39:52;18.30;99.90
18229;DHT22;9239;50.932;3.142;2023-09-19T09:42:32;18.50;99.90
18229;DHT22;9239;50.932;3.142;2023-09-19T09:45:17;18.60;99.90
18229;DHT22;9239;50.932;3.142;2023-09-19T09:47:45;18.70;99.90
18229;DHT22;9239;50.932;3.142;2023-09-19T09:50:27;18.70;99.90
18229;DHT22;9239;50.932;3.142;2023-09-19T09:53:25;18.70;99.90
18229;DHT22;9239;50.932;3.142;2023-09-19T09:56:02;18.70;99.90
18229;DHT22;9239;50.932;3.142;2023-09-19T09:58:31;18.80;99.90
18229;DHT22;9239;50.932;3.142;2023-09-19T10:00:59;18.90;99.90
18229;DHT22;9239;50.932;3.142;2023-09-19T10:03:35;18.90;99.90
18229;DHT22;9239;50.932;3.142;2023-09-19T10:06:09;19.20;99.90
18229;DHT22;9239;50.932;3.142;2023-09-19T10:09:01;19.20;99.90
18229;DHT22;9239;50.932;3.142;2023-09-19T10:11:42;19.30;99.90
18229;DHT22;9239;50.932;3.142;2023-09-19T10:14:14;19.40;99.90
18229;DHT22;9239;50.932;3.142;2023-09-19T10:16:46;19.50;99.90
18229;DHT22;9239;50.932;3.142;2023-09-19T10:19:21;19.50;99.90
18229;DHT22;9239;50.932;3.142;2023-09-19T10:21:50;19.50;99.90
18229;DHT22;9239;50.932;3.142;2023-09-19T10:24:18;19.40;99.90
18229;DHT22;9239;50.932;3.142;2023-09-19T10:26:47;19.50;99.90
18229;DHT22;9239;50.932;3.142;2023-09-19T10:29:17;19.70;99.90
18229;DHT22;9239;50.932;3.142;2023-09-19T10:31:47;19.80;99.90
18229;DHT22;9239;50.932;3.142;2023-09-19T10:34:17;19.80;99.90
18229;DHT22;9239;50.932;3.142;2023-09-19T10:36:45;19.80;99.90
18229;DHT22;9239;50.932;3.142;2023-09-19T10:39:15;19.80;99.90
18229;DHT22;9239;50.932;3.142;2023-09-19T10:41:50;19.70;99.90
18229;DHT22;9239;50.932;3.142;2023-09-19T10:44:23;19.80;99.90
18229;DHT22;9239;50.932;3.142;2023-09-19T10:46:51;20.00;99.90
18229;DHT22;9239;50.932;3.142;2023-09-19T10:49:19;20.00;99.90
18229;DHT22;9239;50.932;3.142;2023-09-19T10:51:49;20.10;99.90
18229;DHT22;9239;50.932;3.142;2023-09-19T10:54:18;20.00;99.90
18229;DHT22;9239;50.932;3.142;2023-09-19T10:56:50;19.90;99.90
18229;DHT22;9239;50.932;3.142;2023-09-19T10:59:19;19.90;99.90
18229;DHT22;9239;50.932;3.142;2023-09-19T11:01:51;20.00;99.90
18229;DHT22;9239;50.932;3.142;2023-09-19T11:04:23;20.00;99.90
18229;DHT22;9239;50.932;3.142;2023-09-19T11:07:04;20.00;99.90
18229;DHT22;9239;50.932;3.142;2023-09-19T11:09:44;19.90;99.90
18229;DHT22;9239;50.932;3.142;2023-09-19T11:12:49;19.80;99.90
18229;DHT22;9239;50.932;3.142;2023-09-19T11:18:51;20.10;99.90
18229;DHT22;9239;50.932;3.142;2023-09-19T11:21:53;20.10;99.90
18229;DHT22;9239;50.932;3.142;2023-09-19T11:24:33;20.10;99.90
18229;DHT22;9239;50.932;3.142;2023-09-19T11:27:17;20.10;99.90
18229;DHT22;9239;50.932;3.142;2023-09-19T11:29:45;20.00;99.90
18229;DHT22;9239;50.932;3.142;2023-09-19T11:32:14;20.00;99.90
18229;DHT22;9239;50.932;3.142;2023-09-19T11:34:44;20.00;99.90
18229;DHT22;9239;50.932;3.142;2023-09-19T11:40:44;20.00;99.90
18229;DHT22;9239;50.932;3.142;2023-09-19T11:43:34;20.00;99.90
18229;DHT22;9239;50.932;3.142;2023-09-19T11:46:04;20.00;99.90
18229;DHT22;9239;50.932;3.142;2023-09-19T11:48:32;19.90;99.90
18229;DHT22;9239;50.932;3.142;2023-09-19T11:51:00;20.00;99.90
18229;DHT22;9239;50.932;3.142;2023-09-19T11:53:33;20.00;99.90
18229;DHT22;9239;50.932;3.142;2023-09-19T11:56:02;20.20;99.90
18229;DHT22;9239;50.932;3.142;2023-09-19T11:58:35;20.10;99.90
18229;DHT22;9239;50.932;3.142;2023-09-19T12:01:03;20.10;99.90
18229;DHT22;9239;50.932;3.142;2023-09-19T12:03:36;20.20;99.90
18229;DHT22;9239;50.932;3.142;2023-09-19T12:06:11;20.30;99.90
18229;DHT22;9239;50.932;3.142;2023-09-19T12:08:40;20.30;99.90
18229;DHT22;9239;50.932;3.142;2023-09-19T12:11:13;20.40;99.90
18229;DHT22;9239;50.932;3.142;2023-09-19T12:13:46;20.30;99.90
18229;DHT22;9239;50.932;3.142;2023-09-19T12:16:15;20.30;99.90
18229;DHT22;9239;50.932;3.142;2023-09-19T12:18:43;20.30;99.90
18229;DHT22;9239;50.932;3.142;2023-09-19T12:21:25;20.30;99.90
18229;DHT22;9239;50.932;3.142;2023-09-19T12:23:58;20.30;99.90
18229;DHT22;9239;50.932;3.142;2023-09-19T12:26:26;20.30;99.90
18229;DHT22;9239;50.932;3.142;2023-09-19T12:28:55;20.30;99.90
18229;DHT22;9239;50.932;3.142;2023-09-19T12:31:23;20.30;99.90
18229;DHT22;9239;50.932;3.142;2023-09-19T12:33:55;20.30;99.90
18229;DHT22;9239;50.932;3.142;2023-09-19T12:36:22;20.30;99.90
18229;DHT22;9239;50.932;3.142;2023-09-19T12:38:55;20.40;99.90
18229;DHT22;9239;50.932;3.142;2023-09-19T12:41:25;20.40;99.90
18229;DHT22;9239;50.932;3.142;2023-09-19T12:43:52;20.40;99.90
18229;DHT22;9239;50.932;3.142;2023-09-19T12:46:22;20.30;99.90
18229;DHT22;9239;50.932;3.142;2023-09-19T12:49:15;20.40;99.90
18229;DHT22;9239;50.932;3.142;2023-09-19T12:51:44;20.40;99.90
18229;DHT22;9239;50.932;3.142;2023-09-19T12:54:12;20.50;99.90
18229;DHT22;9239;50.932;3.142;2023-09-19T12:56:41;20.50;99.90
18229;DHT22;9239;50.932;3.142;2023-09-19T12:59:12;20.60;99.90
18229;DHT22;9239;50.932;3.142;2023-09-19T13:01:42;20.60;99.90
18229;DHT22;9239;50.932;3.142;2023-09-19T13:04:13;20.60;99.90
18229;DHT22;9239;50.932;3.142;2023-09-19T13:06:44;20.60;99.90
18229;DHT22;9239;50.932;3.142;2023-09-19T13:09:12;20.60;99.90
18229;DHT22;9239;50.932;3.142;2023-09-19T13:11:40;20.40;99.90
18229;DHT22;9239;50.932;3.142;2023-09-19T13:14:17;20.30;99.90
18229;DHT22;9239;50.932;3.142;2023-09-19T13:17:00;20.20;99.90
18229;DHT22;9239;50.932;3.142;2023-09-19T13:19:38;20.20;99.90
18229;DHT22;9239;50.932;3.142;2023-09-19T13:22:39;20.20;99.90
18229;DHT22;9239;50.932;3.142;2023-09-19T13:25:08;20.20;99.90
18229;DHT22;9239;50.932;3.142;2023-09-19T13:27:40;20.20;99.90
18229;DHT22;9239;50.932;3.142;2023-09-19T13:30:08;20.20;99.90
18229;DHT22;9239;50.932;3.142;2023-09-19T13:32:37;20.20;99.90
18229;DHT22;9239;50.932;3.142;2023-09-19T13:35:06;20.10;99.90
18229;DHT22;9239;50.932;3.142;2023-09-19T13:37:34;20.10;99.90
18229;DHT22;9239;50.932;3.142;2023-09-19T13:40:04;20.00;99.90
18229;DHT22;9239;50.932;3.142;2023-09-19T13:42:31;20.00;99.90
18229;DHT22;9239;50.932;3.142;2023-09-19T13:44:58;19.90;99.90
18229;DHT22;9239;50.932;3.142;2023-09-19T13:47:25;19.80;99.90
18229;DHT22;9239;50.932;3.142;2023-09-19T13:49:54;19.90;99.90
18229;DHT22;9239;50.932;3.142;2023-09-19T13:52:21;19.80;99.90
18229;DHT22;9239;50.932;3.142;2023-09-19T13:54:49;19.80;99.90
18229;DHT22;9239;50.932;3.142;2023-09-19T13:57:16;19.80;99.90
18229;DHT22;9239;50.932;3.142;2023-09-19T13:59:43;19.80;99.90
18229;DHT22;9239;50.932;3.142;2023-09-19T14:02:10;19.80;99.90
18229;DHT22;9239;50.932;3.142;2023-09-19T14:04:39;19.80;99.90
18229;DHT22;9239;50.932;3.142;2023-09-19T14:07:08;19.90;99.90
18229;DHT22;9239;50.932;3.142;2023-09-19T14:09:36;20.10;99.90
18229;DHT22;9239;50.932;3.142;2023-09-19T14:12:03;20.10;99.90
18229;DHT22;9239;50.932;3.142;2023-09-19T14:14:30;20.20;99.90
18229;DHT22;9239;50.932;3.142;2023-09-19T14:16:57;20.20;99.90
18229;DHT22;9239;50.932;3.142;2023-09-19T14:19:26;20.20;99.90
18229;DHT22;9239;50.932;3.142;2023-09-19T14:21:53;20.10;99.90
18229;DHT22;9239;50.932;3.142;2023-09-19T14:24:23;20.00;99.90
18229;DHT22;9239;50.932;3.142;2023-09-19T14:26:50;20.00;99.90
18229;DHT22;9239;50.932;3.142;2023-09-19T14:29:17;19.90;99.90
18229;DHT22;9239;50.932;3.142;2023-09-19T14:31:45;19.90;99.90
18229;DHT22;9239;50.932;3.142;2023-09-19T14:34:12;19.90;99.90
18229;DHT22;9239;50.932;3.142;2023-09-19T14:36:40;19.90;99.90
18229;DHT22;9239;50.932;3.142;2023-09-19T14:39:07;19.80;99.90
18229;DHT22;9239;50.932;3.142;2023-09-19T14:41:36;19.80;99.90
18229;DHT22;9239;50.932;3.142;2023-09-19T14:44:03;19.70;99.90
18229;DHT22;9239;50.932;3.142;2023-09-19T14:46:30;19.70;99.90
18229;DHT22;9239;50.932;3.142;2023-09-19T14:48:57;19.60;99.90
18229;DHT22;9239;50.932;3.142;2023-09-19T14:51:25;19.60;99.90
18229;DHT22;9239;50.932;3.142;2023-09-19T14:53:53;19.60;99.90
18229;DHT22;9239;50.932;3.142;2023-09-19T14:56:20;19.50;99.90
18229;DHT22;9239;50.932;3.142;2023-09-19T14:58:51;19.50;99.90
18229;DHT22;9239;50.932;3.142;2023-09-19T15:01:18;19.50;99.90
18229;DHT22;9239;50.932;3.142;2023-09-19T15:03:45;19.40;99.90
18229;DHT22;9239;50.932;3.142;2023-09-19T15:06:14;19.40;99.90
18229;DHT22;9239;50.932;3.142;2023-09-19T15:08:43;19.40;99.90
18229;DHT22;9239;50.932;3.142;2023-09-19T15:11:13;19.40;99.90
18229;DHT22;9239;50.932;3.142;2023-09-19T15:13:42;19.30;99.90
18229;DHT22;9239;50.932;3.142;2023-09-19T15:16:13;19.30;99.90
18229;DHT22;9239;50.932;3.142;2023-09-19T15:18:41;19.30;99.90
18229;DHT22;9239;50.932;3.142;2023-09-19T15:21:10;19.30;99.90
18229;DHT22;9239;50.932;3.142;2023-09-19T15:23:39;19.20;99.90
18229;DHT22;9239;50.932;3.142;2023-09-19T15:26:07;19.20;99.90
18229;DHT22;9239;50.932;3.142;2023-09-19T15:28:35;19.20;99.90
18229;DHT22;9239;50.932;3.142;2023-09-19T15:31:03;19.20;99.90
18229;DHT22;9239;50.932;3.142;2023-09-19T15:33:33;19.20;99.90
18229;DHT22;9239;50.932;3.142;2023-09-19T15:36:02;19.10;99.90
18229;DHT22;9239;50.932;3.142;2023-09-19T15:38:30;19.10;99.90
18229;DHT22;9239;50.932;3.142;2023-09-19T15:40:57;19.20;99.90
18229;DHT22;9239;50.932;3.142;2023-09-19T15:43:25;19.10;99.90
18229;DHT22;9239;50.932;3.142;2023-09-19T15:45:52;19.00;99.90
18229;DHT22;9239;50.932;3.142;2023-09-19T15:48:21;18.90;99.90
18229;DHT22;9239;50.932;3.142;2023-09-19T15:50:49;18.70;99.90
18229;DHT22;9239;50.932;3.142;2023-09-19T15:53:16;18.60;99.90
18229;DHT22;9239;50.932;3.142;2023-09-19T15:55:43;18.40;99.90
18229;DHT22;9239;50.932;3.142;2023-09-19T15:58:10;18.40;99.90
18229;DHT22;9239;50.932;3.142;2023-09-19T16:00:40;18.40;99.90
18229;DHT22;9239;50.932;3.142;2023-09-19T16:03:07;18.30;99.90
18229;DHT22;9239;50.932;3.142;2023-09-19T16:05:37;18.20;99.90
18229;DHT22;9239;50.932;3.142;2023-09-19T16:08:07;18.20;99.90
18229;DHT22;9239;50.932;3.142;2023-09-19T16:10:37;18.10;99.90